Flight Track Log - Related Links

Times and Time Zones

All times are in EDT time to prevent confusion due to time zone crossing. See the ASQ5745 flight status page for this flight to view local times or setup timezone preferences in your user account.

Time Position Orientation Groundspeed Altitude Reporting Facility
EDT Latitude Longitude Course Direction KTS MPH feet Rate Location/Type
Sun 08:24:55 AM 38.9667 -77.5167 North 203 234 2,300  Level Potomac TRACON
Sun 08:26:38 AM 39.0631 -77.6153 322° Northwest 254 292 6,600 2,598 Climbing Washington Center
Sun 08:27:00 AM 39.3218 -77.4500 North  Level FlightAware Approximate
Sun 08:27:39 AM 39.1428 -77.5908 13° North 261 300 9,400  Level Washington Center
Sun 08:28:00 AM 39.4189 -77.4500 North  Level FlightAware Approximate
Sun 08:28:37 AM 39.2328 -77.5664 12° North 291 335 11,100  Level Washington Center
Sun 08:29:00 AM 39.5160 -77.4500 North  Level FlightAware Approximate
Sun 08:29:38 AM 39.3333 -77.5397 12° North 323 372 12,900  Level Washington Center
Sun 08:30:00 AM 39.6032 -77.4500 North  Level FlightAware Approximate
Sun 08:31:29 AM 39.5261 -77.4869 12° North 382 440 15,800  Level New York Center
Sun 08:32:29 AM 39.6342 -77.4567 12° North 395 455 16,700 893 Climbing New York Center
Sun 08:33:30 AM 39.7344 -77.4528 North 404 465 17,600 1,119 Climbing New York Center
Sun 08:34:27 AM 39.8597 -77.4511 North 409 471 18,900 1,150 Climbing New York Center
Sun 08:35:30 AM 39.9789 -77.4464 North 414 476 19,900 992 Climbing New York Center
Sun 08:36:28 AM 40.0850 -77.3750 27° Northeast 404 465 20,900 908 Climbing New York Center
Sun 08:37:29 AM 40.1769 -77.2967 33° Northeast 413 475 21,700 787 Climbing New York Center
Sun 08:38:30 AM 40.2778 -77.2083 34° Northeast 425 489 22,500 605 Climbing New York Center
Sun 08:39:28 AM 40.3850 -77.1147 34° Northeast 442 509 22,900 458 Climbing New York Center
Sun 08:40:28 AM 40.4897 -77.0233 34° Northeast 449 517 23,400 550 Climbing New York Center
Sun 08:41:28 AM 40.5992 -76.9267 34° Northeast 460 529 24,000 545 Climbing New York Center
Sun 08:42:29 AM 40.7211 -76.8636 21° North 460 529 24,500 446 Climbing New York Center
Sun 08:43:29 AM 40.8431 -76.8058 20° North 460 529 24,900 248 Climbing New York Center
Sun 08:44:30 AM 40.9650 -76.7425 21° North 465 535 25,000 50 Climbing New York Center
Sun 08:45:28 AM 41.0908 -76.6819 20° North 470 541 25,000  Level New York Center
Sun 08:46:30 AM 41.2150 -76.6183 21° North 470 541 25,000  Level New York Center
Sun 08:47:28 AM 41.3536 -76.5531 19° North 475 547 25,000  Level New York Center
Sun 08:48:28 AM 41.4817 -76.4892 20° North 480 552 25,000  Level New York Center
Sun 08:49:30 AM 41.6056 -76.4219 22° Northeast 480 552 25,000 -200 Level New York Center
Sun 08:51:58 AM 41.8872 -76.2778 21° North 490 564 24,300 -288 Descending Boston Center
Sun 08:52:58 AM 42.0464 -76.1950 21° North 495 570 24,000 -150 Descending Boston Center
Sun 08:53:58 AM 42.1661 -76.1069 29° Northeast 495 570 24,000  Level Boston Center
Sun 08:54:58 AM 42.2275 -75.9425 63° Northeast 467 537 24,000  Level Boston Center
Sun 08:55:58 AM 42.2847 -75.7714 66° East 475 547 24,000 -917 Level Boston Center
Sun 08:57:22 AM 42.3369 -75.5522 72° East 470 541 21,800 -1,917 Descending Boston Center
Sun 08:58:22 AM 42.3881 -75.3497 71° East 470 541 19,400 -2,250 Descending Boston Center
Sun 08:59:22 AM 42.4278 -75.1828 72° East 470 541 17,300 -2,050 Descending Boston Center
Sun 09:00:22 AM 42.4625 -75.0322 73° East 470 541 15,300 -2,000 Descending Boston Center
Sun 09:01:22 AM 42.5014 -74.8761 71° East 461 531 13,300 -2,050 Descending Boston Center
Sun 09:02:22 AM 42.5383 -74.7056 74° East 435 501 11,200 -1,150 Descending Boston Center
Sun 09:03:22 AM 42.5678 -74.5797 72° East 406 467 11,000 -400 Descending Boston Center
Sun 09:04:22 AM 42.6100 -74.4403 68° East 371 427 10,400 -1,100 Descending Boston Center
Sun 09:05:22 AM 42.6469 -74.3456 62° Northeast 329 379 8,800 -1,700 Descending Boston Center
Sun 09:06:22 AM 42.6928 -74.2283 62° Northeast 311 358 7,000 -1,550 Descending Boston Center
Sun 09:07:22 AM 42.7233 -74.1331 66° East 306 352 5,700 -1,550 Descending Boston Center
Sun 09:08:22 AM 42.7603 -74.0208 66° East 301 346 3,900 -1,680 Descending Boston Center
Sun 09:08:37 AM 42.7669 -73.9956 70° East 299 344 3,600 -750 Descending Boston Center
Sun 09:09:34 AM 42.7972 -73.9228 60° Northeast 289 333 3,000 -632 Descending Boston Center

Login

Don't have an account? Register now (free) for customized features, flight alerts, and more!